Xavantina, Brazil
Current Conditions -  °F | °C
As of 9:00 PM on Saturday 25 Oct 2014 (Local Time) from SBCH Reporting Station
Few Clouds Few Clouds  
Wind Chill: 75°   Ceiling: Unl
Heat Index: 75°   Visibility: 6mi
Dew Point: 61°   Wind: 17mph
Humidity: 61%   Direction: 40°NE
Pressure: 29.91"   Gusts: NA
Location:  27.07°S, 52.34°W
Report Text: SBCH 252300Z 04015KT 9999 FEW025TCU 24/16 Q1013
Loading
Personal Weather Stations






























Interactive Weather Map
Tropical Storm Tracking
New forecast layout! Learn more

10-Day Weather Forecast

Advertisements
Track Severe Weather on mobile